createdAt,value
2022-10-17T00:00:56.004Z,58.99
2022-10-17T00:04:09.103Z,58.41
2022-10-17T00:07:14.217Z,60.11
2022-10-17T00:10:22.640Z,60.36
2022-10-17T00:13:29.627Z,60.64
2022-10-17T00:16:37.720Z,60.23
2022-10-17T00:19:42.071Z,60.12
2022-10-17T00:22:47.703Z,61.20
2022-10-17T00:25:59.810Z,61.31
2022-10-17T00:29:05.797Z,60.20
2022-10-17T00:32:09.836Z,60.22
2022-10-17T00:35:14.067Z,60.28
2022-10-17T00:38:18.623Z,59.10
2022-10-17T00:41:25.576Z,58.32
2022-10-17T00:45:01.603Z,58.13
2022-10-17T00:48:10.060Z,57.41
2022-10-17T00:51:17.230Z,57.50
2022-10-17T00:54:28.983Z,58.68
2022-10-17T00:57:34.702Z,59.06
2022-10-17T01:00:40.894Z,58.78
2022-10-17T01:03:44.807Z,59.37
2022-10-17T01:06:49.179Z,59.75
2022-10-17T01:09:52.951Z,59.40
2022-10-17T01:13:10.099Z,59.90
2022-10-17T01:16:22.347Z,60.19
2022-10-17T01:20:01.003Z,59.88
2022-10-17T01:23:24.687Z,58.29
2022-10-17T01:26:46.224Z,58.58
2022-10-17T01:30:06.262Z,58.47
2022-10-17T01:33:17.368Z,59.63
2022-10-17T01:36:46.315Z,59.01
2022-10-17T01:39:55.247Z,58.73
2022-10-17T01:43:06.545Z,59.17
2022-10-17T01:46:17.674Z,60.17
2022-10-17T01:49:27.760Z,60.14
2022-10-17T01:52:39.945Z,60.44
2022-10-17T01:55:48.801Z,60.44
2022-10-17T01:58:59.832Z,60.58
2022-10-17T02:02:08.084Z,58.90
2022-10-17T02:05:14.328Z,59.26
2022-10-17T02:08:27.979Z,59.46
2022-10-17T02:11:33.905Z,59.46
2022-10-17T02:14:49.093Z,59.25
2022-10-17T02:18:08.099Z,58.89
2022-10-17T02:21:23.227Z,59.45
2022-10-17T02:24:39.713Z,58.27
2022-10-17T02:27:50.253Z,57.84
2022-10-17T02:31:05.791Z,58.44
2022-10-17T02:34:18.927Z,57.68
2022-10-17T02:37:30.869Z,58.38
2022-10-17T02:40:36.431Z,60.21
2022-10-17T02:43:45.446Z,60.27
2022-10-17T02:46:56.947Z,60.53
2022-10-17T02:50:01.483Z,59.16
2022-10-17T02:53:13.309Z,59.60
2022-10-17T02:56:21.350Z,59.80
2022-10-17T02:59:27.928Z,61.31
2022-10-17T03:02:40.689Z,61.40
2022-10-17T03:05:47.731Z,60.37
2022-10-17T03:08:54.666Z,60.77
2022-10-17T03:11:58.428Z,60.34
2022-10-17T03:15:02.678Z,60.13
2022-10-17T03:18:09.547Z,60.46
2022-10-17T03:21:14.852Z,60.54
2022-10-17T03:24:21.234Z,60.55
2022-10-17T03:27:25.921Z,61.17
2022-10-17T03:30:30.547Z,61.28
2022-10-17T03:33:38.489Z,61.08
2022-10-17T03:36:42.534Z,61.82
2022-10-17T03:39:48.484Z,61.41
2022-10-17T03:42:52.955Z,60.56
2022-10-17T03:45:58.157Z,59.97
2022-10-17T03:49:02.461Z,60.78
2022-10-17T03:52:07.824Z,60.86
2022-10-17T03:55:13.846Z,60.64
2022-10-17T03:58:19.875Z,60.60
2022-10-17T04:01:23.839Z,59.71
2022-10-17T04:04:28.810Z,59.58
2022-10-17T04:08:01.000Z,61.85
2022-10-17T04:11:29.743Z,61.44
2022-10-17T04:14:38.692Z,61.49
2022-10-17T04:17:44.190Z,61.01
2022-10-17T04:21:07.998Z,60.90
2022-10-17T04:24:14.154Z,61.07
2022-10-17T04:27:32.501Z,61.51
2022-10-17T04:30:43.615Z,62.31
2022-10-17T04:33:51.114Z,62.11
2022-10-17T04:36:55.767Z,62.29
2022-10-17T04:40:00.310Z,61.86
2022-10-17T04:43:09.579Z,61.85
2022-10-17T04:46:17.432Z,61.02
2022-10-17T04:49:23.101Z,61.35
2022-10-17T04:52:30.826Z,61.16
2022-10-17T04:55:39.224Z,60.73
2022-10-17T04:58:46.405Z,60.84
2022-10-17T05:01:52.066Z,61.46
2022-10-17T05:04:56.466Z,60.54
2022-10-17T05:08:03.093Z,59.86
2022-10-17T05:11:19.307Z,59.91
2022-10-17T05:14:25.428Z,60.33
2022-10-17T05:17:33.539Z,60.10
2022-10-17T05:20:39.011Z,61.47
2022-10-17T05:23:43.657Z,61.53
2022-10-17T05:26:47.634Z,61.51
2022-10-17T05:29:53.300Z,60.92
2022-10-17T05:33:04.418Z,60.17
2022-10-17T05:36:10.141Z,60.26
2022-10-17T05:39:20.156Z,60.46
2022-10-17T05:42:26.397Z,60.82
2022-10-17T05:45:33.121Z,60.91
2022-10-17T05:48:39.264Z,60.97
2022-10-17T05:51:46.126Z,60.76
2022-10-17T05:54:51.250Z,61.43
2022-10-17T05:57:55.290Z,61.37
2022-10-17T06:01:07.083Z,60.85
2022-10-17T06:04:14.972Z,60.73
2022-10-17T06:07:20.822Z,61.20
2022-10-17T06:10:25.623Z,60.98
2022-10-17T06:13:30.837Z,61.08
2022-10-17T06:16:43.583Z,60.99
2022-10-17T06:19:48.601Z,60.79
2022-10-17T06:22:56.117Z,61.53
2022-10-17T06:26:23.459Z,60.98
2022-10-17T06:29:28.993Z,60.80
2022-10-17T06:32:34.642Z,60.81
2022-10-17T06:35:38.898Z,61.02
2022-10-17T06:38:43.427Z,60.68
2022-10-17T06:41:57.845Z,60.63
2022-10-17T06:45:16.660Z,60.77
2022-10-17T06:48:49.245Z,61.56
2022-10-17T06:52:07.572Z,62.99
2022-10-17T06:56:22.956Z,62.90
2022-10-17T06:59:44.470Z,62.80
2022-10-17T07:02:54.529Z,62.33
2022-10-17T07:06:00.700Z,62.64
2022-10-17T07:09:07.013Z,62.67
2022-10-17T07:12:15.946Z,63.13
2022-10-17T07:15:23.576Z,63.27
2022-10-17T07:18:33.042Z,63.41
2022-10-17T07:21:40.773Z,63.43
2022-10-17T07:24:53.044Z,63.14
2022-10-17T07:28:23.515Z,65.07
2022-10-17T07:31:30.776Z,64.93
2022-10-17T07:34:38.286Z,64.54
2022-10-17T07:37:46.926Z,65.08
2022-10-17T07:40:57.236Z,65.52
2022-10-17T07:44:02.646Z,65.40
2022-10-17T07:47:11.669Z,66.05
2022-10-17T07:50:19.148Z,66.72
2022-10-17T07:53:25.120Z,66.09
2022-10-17T07:56:29.904Z,65.92
2022-10-17T07:59:40.568Z,65.84
2022-10-17T08:02:47.018Z,66.85
2022-10-17T08:05:53.267Z,66.40
2022-10-17T08:09:03.196Z,65.95
2022-10-17T08:12:09.229Z,66.18
2022-10-17T08:15:13.920Z,65.36
2022-10-17T08:18:17.902Z,64.66
2022-10-17T08:21:22.130Z,65.74
2022-10-17T08:24:28.918Z,64.44
2022-10-17T08:27:36.328Z,64.00
2022-10-17T08:30:43.078Z,64.43
2022-10-17T08:33:48.805Z,63.11
2022-10-17T08:36:52.774Z,63.60
2022-10-17T08:39:58.953Z,63.18
2022-10-17T08:43:19.395Z,63.47
2022-10-17T08:46:30.492Z,64.15
2022-10-17T08:49:43.265Z,62.69
2022-10-17T08:52:53.773Z,62.05
2022-10-17T08:56:02.812Z,62.87
2022-10-17T08:59:12.239Z,62.17
2022-10-17T09:02:34.885Z,61.87
2022-10-17T09:05:48.324Z,61.89
2022-10-17T09:09:04.777Z,61.21
2022-10-17T09:12:19.160Z,61.96
2022-10-17T09:15:39.071Z,61.57
2022-10-17T09:18:52.428Z,61.34
2022-10-17T09:22:01.019Z,61.86
2022-10-17T09:25:11.187Z,61.94
2022-10-17T09:32:45.123Z,61.35
2022-10-17T09:36:05.530Z,60.87
2022-10-17T09:39:25.828Z,60.84
2022-10-17T09:42:48.877Z,60.65
2022-10-17T09:46:21.812Z,60.38
2022-10-17T09:49:53.396Z,60.10
2022-10-17T09:53:23.974Z,60.34
2022-10-17T09:56:32.946Z,60.54
2022-10-17T09:59:54.480Z,59.64
2022-10-17T10:03:28.627Z,59.65
2022-10-17T10:07:29.443Z,59.44
2022-10-17T10:11:03.591Z,59.97
2022-10-17T10:14:28.106Z,59.59
2022-10-17T10:17:43.141Z,59.54
2022-10-17T10:20:47.063Z,58.71
2022-10-17T10:24:14.524Z,57.95
2022-10-17T10:27:30.374Z,57.79
2022-10-17T10:34:51.437Z,57.55
2022-10-17T10:38:01.131Z,56.99
2022-10-17T10:41:12.872Z,57.11
2022-10-17T10:44:23.110Z,57.70
2022-10-17T10:47:36.978Z,57.86
2022-10-17T10:50:45.577Z,57.23
2022-10-17T10:53:56.158Z,56.76
2022-10-17T10:57:04.700Z,56.71
2022-10-17T11:00:17.409Z,57.17
2022-10-17T11:03:28.978Z,56.27
2022-10-17T11:06:38.929Z,55.64
2022-10-17T11:09:53.095Z,52.97
2022-10-17T11:13:13.960Z,53.64
2022-10-17T11:16:29.626Z,54.69
2022-10-17T11:19:38.967Z,55.00
2022-10-17T11:22:48.289Z,53.92
2022-10-17T11:25:59.110Z,52.82
2022-10-17T11:29:09.228Z,53.02
2022-10-17T11:32:19.985Z,51.06
2022-10-17T11:35:28.336Z,51.88
2022-10-17T11:38:47.259Z,51.05
2022-10-17T11:41:55.484Z,48.79
2022-10-17T11:45:07.200Z,47.04
2022-10-17T11:48:15.111Z,44.80
2022-10-17T11:54:47.749Z,45.71
2022-10-17T11:58:12.279Z,44.67
2022-10-17T12:01:40.392Z,43.21
2022-10-17T12:04:56.956Z,43.22
2022-10-17T12:08:07.390Z,44.21
2022-10-17T12:11:22.086Z,41.19
2022-10-17T12:14:43.103Z,42.64
2022-10-17T12:17:56.848Z,41.17
2022-10-17T12:21:02.040Z,39.09
2022-10-17T12:24:06.473Z,40.87
2022-10-17T12:27:42.539Z,42.47
2022-10-17T12:30:55.871Z,41.21
2022-10-17T12:34:02.990Z,40.75
2022-10-17T12:37:15.060Z,40.09
2022-10-17T12:40:50.595Z,38.96
2022-10-17T12:43:55.500Z,39.93
2022-10-17T12:46:59.541Z,39.74
2022-10-17T12:50:05.604Z,39.68
2022-10-17T12:53:19.244Z,40.04
2022-10-17T12:56:33.229Z,40.12
2022-10-17T12:59:37.092Z,40.72
2022-10-17T13:02:42.861Z,41.27
2022-10-17T13:05:52.407Z,41.02
2022-10-17T13:09:03.550Z,42.18
2022-10-17T13:12:14.941Z,42.80
2022-10-17T13:15:21.074Z,43.02
2022-10-17T13:18:26.775Z,42.79
2022-10-17T13:21:32.089Z,43.35
2022-10-17T13:24:39.141Z,43.22
2022-10-17T13:27:43.007Z,42.59
2022-10-17T13:30:49.726Z,42.46
2022-10-17T13:33:57.972Z,41.85
2022-10-17T13:37:21.187Z,42.01
2022-10-17T13:40:44.716Z,40.25
2022-10-17T13:43:52.236Z,39.85
2022-10-17T13:46:56.615Z,38.66
2022-10-17T13:50:00.755Z,39.08
2022-10-17T13:53:16.998Z,38.93
2022-10-17T13:56:28.517Z,37.42
2022-10-17T13:59:40.054Z,37.35
2022-10-17T14:02:45.096Z,38.09
2022-10-17T14:06:14.123Z,36.72
2022-10-17T14:09:25.186Z,36.63
2022-10-17T14:12:29.088Z,36.97
2022-10-17T14:15:35.656Z,37.76
2022-10-17T14:18:44.491Z,37.78
2022-10-17T14:21:50.364Z,38.03
2022-10-17T14:25:00.260Z,37.52
2022-10-17T14:28:17.105Z,38.33
2022-10-17T14:31:31.574Z,38.09
2022-10-17T14:34:38.563Z,38.23
2022-10-17T14:37:46.743Z,38.39
2022-10-17T14:41:04.638Z,38.66
2022-10-17T14:44:23.587Z,38.33
2022-10-17T14:47:43.136Z,38.61
2022-10-17T14:51:10.062Z,38.66
2022-10-17T14:54:26.061Z,38.01
2022-10-17T14:57:44.575Z,37.51
2022-10-17T15:00:48.398Z,38.47
2022-10-17T15:03:52.720Z,39.05
2022-10-17T15:06:56.903Z,38.95
2022-10-17T15:10:01.028Z,39.21
2022-10-17T15:16:33.719Z,39.62
2022-10-17T15:19:37.502Z,39.37
2022-10-17T15:22:41.835Z,39.93
2022-10-17T15:25:45.667Z,39.64
2022-10-17T15:28:52.665Z,39.66
2022-10-17T15:31:56.451Z,39.80
2022-10-17T15:35:00.193Z,39.71
2022-10-17T15:38:04.956Z,39.20
2022-10-17T15:41:11.063Z,39.57
2022-10-17T15:44:16.210Z,40.10
2022-10-17T15:47:25.547Z,39.87
2022-10-17T15:50:30.765Z,40.59
2022-10-17T15:53:35.035Z,40.45
2022-10-17T15:56:40.267Z,41.32
2022-10-17T15:59:47.528Z,42.33
2022-10-17T16:02:51.785Z,43.72
2022-10-17T16:05:56.604Z,44.12
2022-10-17T16:09:00.726Z,45.18
2022-10-17T16:12:06.888Z,46.35
2022-10-17T16:15:15.907Z,47.58
2022-10-17T16:18:21.245Z,47.76
2022-10-17T16:21:29.014Z,48.38
2022-10-17T16:24:35.402Z,49.10
2022-10-17T16:27:45.135Z,49.54
2022-10-17T16:31:00.202Z,49.28
2022-10-17T16:34:06.524Z,49.87
2022-10-17T16:37:10.373Z,50.02
2022-10-17T16:40:14.208Z,50.11
2022-10-17T16:43:18.762Z,50.57
2022-10-17T16:46:25.071Z,51.14
2022-10-17T16:49:32.282Z,50.90
2022-10-17T16:52:36.015Z,51.52
2022-10-17T16:55:40.248Z,52.48
2022-10-17T16:58:44.360Z,52.38
2022-10-17T17:01:49.977Z,52.36
2022-10-17T17:04:53.568Z,53.01
2022-10-17T17:07:57.879Z,53.23
2022-10-17T17:11:01.605Z,53.45
2022-10-17T17:14:08.142Z,53.44
2022-10-17T17:17:19.669Z,54.35
2022-10-17T17:20:34.938Z,54.45
2022-10-17T17:23:40.582Z,54.53
2022-10-17T17:26:45.405Z,54.09
2022-10-17T17:29:49.249Z,54.22
2022-10-17T17:32:54.838Z,54.13
2022-10-17T17:36:00.260Z,54.15
2022-10-17T17:39:07.891Z,54.31
2022-10-17T17:42:16.082Z,54.40
2022-10-17T17:45:20.714Z,54.50
2022-10-17T17:48:25.748Z,54.73
2022-10-17T17:51:55.590Z,54.72
2022-10-17T17:55:00.699Z,54.80
2022-10-17T17:58:06.971Z,54.07
2022-10-17T18:01:15.058Z,54.72
2022-10-17T18:04:21.034Z,54.37
2022-10-17T18:07:24.877Z,54.66
2022-10-17T18:10:30.024Z,54.40
2022-10-17T18:13:33.594Z,54.82
2022-10-17T18:16:38.605Z,54.41
2022-10-17T18:19:43.926Z,55.59
2022-10-17T18:22:48.178Z,54.78
2022-10-17T18:25:56.240Z,55.61
2022-10-17T18:29:00.400Z,55.89
2022-10-17T18:32:33.231Z,55.26
2022-10-17T18:35:40.634Z,55.21
2022-10-17T18:38:44.595Z,55.34
2022-10-17T18:41:48.810Z,56.72
2022-10-17T18:44:53.260Z,56.48
2022-10-17T18:47:57.964Z,55.92
2022-10-17T18:51:06.595Z,56.71
2022-10-17T18:54:14.708Z,55.64
2022-10-17T18:57:21.445Z,55.13
2022-10-17T19:00:28.129Z,55.56
2022-10-17T19:03:32.430Z,55.35
2022-10-17T19:06:38.552Z,55.59
2022-10-17T19:09:43.126Z,56.82
2022-10-17T19:12:48.846Z,56.07
2022-10-17T19:15:52.760Z,55.37
2022-10-17T19:19:23.883Z,55.44
2022-10-17T19:22:31.301Z,55.05
2022-10-17T19:25:35.342Z,55.73
2022-10-17T19:28:42.577Z,55.72
2022-10-17T19:31:48.366Z,55.72
2022-10-17T19:35:24.572Z,55.62
2022-10-17T19:38:30.375Z,55.37
2022-10-17T19:41:36.048Z,55.13
2022-10-17T19:44:42.917Z,56.79
2022-10-17T19:47:46.862Z,56.54
2022-10-17T19:50:51.985Z,56.44
2022-10-17T19:54:00.466Z,55.93
2022-10-17T19:57:09.481Z,56.00
2022-10-17T20:00:15.186Z,55.88
2022-10-17T20:03:21.709Z,55.90
2022-10-17T20:06:27.629Z,55.40
2022-10-17T20:09:33.364Z,55.64
2022-10-17T20:12:37.294Z,55.16
2022-10-17T20:15:43.520Z,55.20
2022-10-17T20:18:47.100Z,56.58
2022-10-17T20:21:56.149Z,56.27
2022-10-17T20:25:01.542Z,56.70
2022-10-17T20:28:06.803Z,55.58
2022-10-17T20:31:11.355Z,56.24
2022-10-17T20:34:18.789Z,56.83
2022-10-17T20:37:23.221Z,56.61
2022-10-17T20:40:46.004Z,55.08
2022-10-17T20:43:52.795Z,54.67
2022-10-17T20:47:02.167Z,55.25
2022-10-17T20:50:07.977Z,54.87
2022-10-17T20:56:41.079Z,56.02
2022-10-17T20:59:47.152Z,55.18
2022-10-17T21:02:51.314Z,56.12
2022-10-17T21:05:57.688Z,56.07
2022-10-17T21:09:07.236Z,56.57
2022-10-17T21:12:18.190Z,56.50
2022-10-17T21:15:29.976Z,56.48
2022-10-17T21:18:41.783Z,55.58
2022-10-17T21:21:47.496Z,54.89
2022-10-17T21:24:52.250Z,54.98
2022-10-17T21:27:58.054Z,55.19
2022-10-17T21:31:16.877Z,55.59
2022-10-17T21:34:24.618Z,54.46
2022-10-17T21:37:30.008Z,54.25
2022-10-17T21:40:34.876Z,54.69
2022-10-17T21:43:44.998Z,56.38
2022-10-17T21:46:53.740Z,56.49
2022-10-17T21:50:02.511Z,55.54
2022-10-17T21:53:07.470Z,55.94
2022-10-17T21:56:13.627Z,55.52
2022-10-17T21:59:19.447Z,57.02
2022-10-17T22:02:24.411Z,55.96
2022-10-17T22:05:27.952Z,55.66
2022-10-17T22:08:32.981Z,55.63
2022-10-17T22:11:37.967Z,55.84
2022-10-17T22:14:45.680Z,55.56
2022-10-17T22:17:49.460Z,58.04
2022-10-17T22:20:54.356Z,56.37
2022-10-17T22:24:00.852Z,55.47
2022-10-17T22:27:09.871Z,55.94
2022-10-17T22:30:15.648Z,55.89
2022-10-17T22:33:22.492Z,55.25
2022-10-17T22:36:28.149Z,55.66
2022-10-17T22:39:32.177Z,55.84
2022-10-17T22:42:36.738Z,55.10
2022-10-17T22:45:45.208Z,54.89
2022-10-17T22:48:48.849Z,55.36
2022-10-17T22:51:55.253Z,54.80
2022-10-17T22:55:00.404Z,55.04
2022-10-17T22:58:04.937Z,55.96
2022-10-17T23:01:15.758Z,55.41
2022-10-17T23:04:19.590Z,55.53
2022-10-17T23:07:23.280Z,54.78
2022-10-17T23:10:27.622Z,54.89
2022-10-17T23:13:34.166Z,54.61
2022-10-17T23:16:40.387Z,55.15
2022-10-17T23:19:44.408Z,54.47
2022-10-17T23:22:50.340Z,55.11
2022-10-17T23:25:54.135Z,54.51
2022-10-17T23:28:58.312Z,54.30
2022-10-17T23:32:03.966Z,54.72
2022-10-17T23:35:10.898Z,55.14
2022-10-17T23:38:16.614Z,54.23
2022-10-17T23:41:20.783Z,53.91
2022-10-17T23:44:25.616Z,54.42
2022-10-17T23:47:33.697Z,55.98
2022-10-17T23:50:39.123Z,55.73
2022-10-17T23:53:50.727Z,55.75
2022-10-17T23:56:54.511Z,55.62
2022-10-17T23:59:58.609Z,55.86
